createdAt,value
2023-02-03T00:00:08.455Z,100779.97
2023-02-03T00:02:38.770Z,100793.16
2023-02-03T00:05:07.073Z,100786.59
2023-02-03T00:07:36.080Z,100787.09
2023-02-03T00:10:04.084Z,100781.88
2023-02-03T00:12:31.470Z,100793.16
2023-02-03T00:14:58.661Z,100785.66
2023-02-03T00:17:25.853Z,100784.31
2023-02-03T00:19:53.072Z,100787.28
2023-02-03T00:22:20.345Z,100791.53
2023-02-03T00:24:48.617Z,100789.44
2023-02-03T00:27:15.813Z,100792.66
2023-02-03T00:29:43.062Z,100790.03
2023-02-03T00:32:10.337Z,100798.63
2023-02-03T00:34:37.644Z,100796.81
2023-02-03T00:37:04.958Z,100795.53
2023-02-03T00:39:32.155Z,100789.03
2023-02-03T00:41:59.324Z,100785.66
2023-02-03T00:44:26.529Z,100791.38
2023-02-03T00:46:53.684Z,100785.66
2023-02-03T00:49:20.870Z,100782.00
2023-02-03T00:51:48.136Z,100794.31
2023-02-03T00:54:15.596Z,100799.09
2023-02-03T00:56:43.053Z,100793.16
2023-02-03T00:59:10.452Z,100787.06
2023-02-03T01:01:37.986Z,100781.34
2023-02-03T01:04:05.594Z,100791.84
2023-02-03T01:06:34.422Z,100800.06
2023-02-03T01:09:04.462Z,100798.00
2023-02-03T01:11:33.192Z,100798.88
2023-02-03T01:14:01.738Z,100798.47
2023-02-03T01:16:31.309Z,100797.66
2023-02-03T01:18:58.681Z,100795.03
2023-02-03T01:21:29.391Z,100801.84
2023-02-03T01:23:59.745Z,100800.28
2023-02-03T01:26:30.010Z,100799.09
2023-02-03T01:29:00.235Z,100801.28
2023-02-03T01:31:42.419Z,100807.31
2023-02-03T01:34:16.432Z,100812.09
2023-02-03T01:36:44.106Z,100815.63
2023-02-03T01:39:11.598Z,100817.69
2023-02-03T01:41:40.096Z,100823.88
2023-02-03T01:44:46.002Z,100824.16
2023-02-03T01:47:23.602Z,100820.25
2023-02-03T01:50:20.442Z,100813.22
2023-02-03T01:52:58.988Z,100819.41
2023-02-03T01:55:41.448Z,100824.56
2023-02-03T01:58:23.622Z,100823.28
2023-02-03T02:00:54.534Z,100823.56
2023-02-03T02:03:32.447Z,100822.06
2023-02-03T02:06:08.084Z,100812.91
2023-02-03T02:08:37.646Z,100807.78
2023-02-03T02:11:06.045Z,100803.59
2023-02-03T02:13:37.468Z,100807.56
2023-02-03T02:16:39.982Z,100805.75
2023-02-03T02:19:35.900Z,100813.34
2023-02-03T02:22:22.671Z,100813.50
2023-02-03T02:25:38.491Z,100822.84
2023-02-03T02:28:29.787Z,100818.13
2023-02-03T02:31:44.269Z,100815.47
2023-02-03T02:34:49.410Z,100816.41
2023-02-03T02:38:03.805Z,100810.84
2023-02-03T02:41:05.334Z,100809.41
2023-02-03T02:43:46.150Z,100816.03
2023-02-03T02:46:26.530Z,100809.72
2023-02-03T02:49:31.906Z,100803.84
2023-02-03T02:52:07.235Z,100801.03
2023-02-03T02:54:40.717Z,100805.47
2023-02-03T02:57:13.528Z,100809.53
2023-02-03T02:59:40.833Z,100810.97
2023-02-03T03:02:11.887Z,100817.88
2023-02-03T03:04:42.499Z,100819.06
2023-02-03T03:07:26.465Z,100817.44
2023-02-03T03:10:06.535Z,100825.59
2023-02-03T03:12:50.041Z,100839.09
2023-02-03T03:15:25.713Z,100853.03
2023-02-03T03:18:25.575Z,100850.38
2023-02-03T03:21:05.920Z,100844.53
2023-02-03T03:23:43.062Z,100848.91
2023-02-03T03:26:44.726Z,100848.38
2023-02-03T03:29:51.136Z,100845.53
2023-02-03T03:32:18.599Z,100845.97
2023-02-03T03:34:46.107Z,100842.94
2023-02-03T03:37:36.487Z,100848.41
2023-02-03T03:40:21.971Z,100853.84
2023-02-03T03:43:02.992Z,100856.50
2023-02-03T03:45:42.556Z,100845.28
2023-02-03T03:48:57.951Z,100855.72
2023-02-03T03:51:44.206Z,100863.31
2023-02-03T03:54:20.449Z,100870.25
2023-02-03T03:57:15.298Z,100862.38
2023-02-03T03:59:51.078Z,100871.50
2023-02-03T04:02:24.266Z,100869.38
2023-02-03T04:04:52.024Z,100859.97
2023-02-03T04:07:20.257Z,100863.03
2023-02-03T04:09:47.578Z,100869.56
2023-02-03T04:12:25.995Z,100875.47
2023-02-03T04:14:53.403Z,100866.06
2023-02-03T04:17:20.730Z,100877.03
2023-02-03T04:19:49.159Z,100866.41
2023-02-03T04:22:16.381Z,100869.13
2023-02-03T04:24:46.818Z,100864.41
2023-02-03T04:27:14.086Z,100862.16
2023-02-03T04:29:41.312Z,100867.91
2023-02-03T04:32:08.660Z,100882.63
2023-02-03T04:34:35.997Z,100890.97
2023-02-03T04:37:03.216Z,100875.50
2023-02-03T04:39:30.481Z,100866.38
2023-02-03T04:41:57.744Z,100867.59
2023-02-03T04:44:26.160Z,100861.84
2023-02-03T04:46:53.520Z,100849.53
2023-02-03T04:49:21.156Z,100850.44
2023-02-03T04:51:52.164Z,100857.09
2023-02-03T04:54:19.415Z,100858.50
2023-02-03T04:56:46.652Z,100860.00
2023-02-03T04:59:13.947Z,100855.16
2023-02-03T05:01:44.927Z,100870.16
2023-02-03T05:04:12.300Z,100878.22
2023-02-03T05:06:39.774Z,100875.16
2023-02-03T05:09:07.109Z,100868.16
2023-02-03T05:11:34.432Z,100868.16
2023-02-03T05:14:01.636Z,100873.63
2023-02-03T05:16:31.435Z,100864.50
2023-02-03T05:18:58.826Z,100864.50
2023-02-03T05:21:27.317Z,100864.50
2023-02-03T05:23:54.655Z,100867.53
2023-02-03T05:26:21.945Z,100877.53
2023-02-03T05:28:50.563Z,100874.34
2023-02-03T05:31:20.585Z,100860.25
2023-02-03T05:33:47.940Z,100866.66
2023-02-03T05:36:15.144Z,100874.19
2023-02-03T05:38:45.513Z,100886.63
2023-02-03T05:41:33.158Z,100889.81
2023-02-03T05:44:00.655Z,100900.28
2023-02-03T05:46:27.933Z,100902.06
2023-02-03T05:48:55.131Z,100905.69
2023-02-03T05:51:22.437Z,100925.75
2023-02-03T05:53:49.607Z,100940.09
2023-02-03T05:56:17.509Z,100930.47
2023-02-03T05:58:44.773Z,100920.22
2023-02-03T06:01:12.016Z,100911.94
2023-02-03T06:03:44.477Z,100926.09
2023-02-03T06:06:15.357Z,100914.44
2023-02-03T06:08:43.956Z,100910.84
2023-02-03T06:11:12.303Z,100902.03
2023-02-03T06:13:39.758Z,100904.06
2023-02-03T06:16:11.453Z,100910.16
2023-02-03T06:18:48.965Z,100907.44
2023-02-03T06:21:16.861Z,100907.28
2023-02-03T06:24:19.598Z,100906.06
2023-02-03T06:27:00.505Z,100902.28
2023-02-03T06:30:03.514Z,100895.59
2023-02-03T06:32:31.064Z,100884.78
2023-02-03T06:35:00.792Z,100899.94
2023-02-03T06:37:36.363Z,100909.72
2023-02-03T06:41:16.183Z,100917.63
2023-02-03T06:43:38.224Z,100915.13
2023-02-03T06:46:22.717Z,100911.66
2023-02-03T06:49:05.283Z,100921.41
2023-02-03T06:51:48.761Z,100935.66
2023-02-03T06:54:40.998Z,100940.00
2023-02-03T06:57:17.841Z,100957.81
2023-02-03T06:59:52.896Z,100956.69
2023-02-03T07:02:25.909Z,100961.22
2023-02-03T07:05:37.457Z,100976.34
2023-02-03T07:08:22.680Z,100974.66
2023-02-03T07:11:19.373Z,100966.88
2023-02-03T07:13:50.019Z,100960.78
2023-02-03T07:16:48.586Z,100953.13
2023-02-03T07:19:34.350Z,100966.88
2023-02-03T07:22:18.798Z,100966.53
2023-02-03T07:25:04.043Z,100966.59
2023-02-03T07:27:50.120Z,100970.13
2023-02-03T07:30:41.783Z,100972.88
2023-02-03T07:33:13.541Z,100986.56
2023-02-03T07:36:09.272Z,100994.59
2023-02-03T07:39:31.346Z,101001.00
2023-02-03T07:41:38.864Z,101006.47
2023-02-03T07:44:09.772Z,101001.31
2023-02-03T07:46:47.432Z,101005.72
2023-02-03T07:49:36.412Z,101005.56
2023-02-03T07:52:22.117Z,101021.19
2023-02-03T07:55:07.563Z,101025.28
2023-02-03T07:57:56.691Z,101030.94
2023-02-03T08:00:29.924Z,101034.31
2023-02-03T08:03:17.712Z,101035.09
2023-02-03T08:05:48.418Z,101039.53
2023-02-03T08:08:18.894Z,101033.94
2023-02-03T08:10:49.393Z,101037.41
2023-02-03T08:13:23.249Z,101023.59
2023-02-03T08:15:51.889Z,101012.44
2023-02-03T08:18:22.798Z,101001.91
2023-02-03T08:20:57.131Z,100997.75
2023-02-03T08:23:27.216Z,101006.22
2023-02-03T08:26:03.715Z,101014.56
2023-02-03T08:28:34.709Z,101014.97
2023-02-03T08:31:13.931Z,101018.34
2023-02-03T08:33:41.741Z,101018.03
2023-02-03T08:36:13.390Z,101021.00
2023-02-03T08:38:44.000Z,101016.78
2023-02-03T08:41:18.553Z,101020.91
2023-02-03T08:43:46.443Z,101021.81
2023-02-03T08:46:15.419Z,101020.44
2023-02-03T08:48:45.794Z,101031.06
2023-02-03T08:51:30.231Z,101030.72
2023-02-03T08:54:08.481Z,101020.72
2023-02-03T08:56:46.075Z,101012.41
2023-02-03T08:59:15.515Z,101012.56
2023-02-03T09:01:48.597Z,101030.06
2023-02-03T09:04:24.883Z,101022.66
2023-02-03T09:06:58.231Z,101016.50
2023-02-03T09:09:30.552Z,101017.53
2023-02-03T09:12:05.498Z,101015.31
2023-02-03T09:14:34.495Z,101006.59
2023-02-03T09:17:09.225Z,101015.50
2023-02-03T09:19:39.593Z,101016.88
2023-02-03T09:22:07.786Z,101016.53
2023-02-03T09:24:36.346Z,101020.09
2023-02-03T09:27:04.117Z,101029.19
2023-02-03T09:29:31.955Z,101033.38
2023-02-03T09:34:51.510Z,101033.38
2023-02-03T09:37:19.205Z,101021.94
2023-02-03T09:39:48.883Z,101013.03
2023-02-03T09:42:41.121Z,101027.31
2023-02-03T09:45:34.667Z,101048.09
2023-02-03T09:48:22.097Z,101044.34
2023-02-03T09:50:54.646Z,101050.47
2023-02-03T09:53:29.479Z,101047.13
2023-02-03T09:55:59.819Z,101054.41
2023-02-03T09:58:34.873Z,101048.44
2023-02-03T10:01:11.479Z,101045.56
2023-02-03T10:03:57.416Z,101049.75
2023-02-03T10:06:47.290Z,101053.09
2023-02-03T10:09:33.323Z,101054.63
2023-02-03T10:12:30.781Z,101036.63
2023-02-03T10:16:25.428Z,101053.09
2023-02-03T10:18:57.304Z,101042.69
2023-02-03T10:21:42.680Z,101041.91
2023-02-03T10:24:39.740Z,101035.19
2023-02-03T10:27:25.219Z,101036.84
2023-02-03T10:30:09.539Z,101044.81
2023-02-03T10:32:39.522Z,101037.88
2023-02-03T10:35:15.581Z,101029.78
2023-02-03T10:37:55.771Z,101017.66
2023-02-03T10:40:29.195Z,101017.94
2023-02-03T10:43:15.802Z,101012.94
2023-02-03T10:45:43.693Z,101008.63
2023-02-03T10:48:23.395Z,101016.09
2023-02-03T10:51:05.820Z,101011.34
2023-02-03T10:53:36.896Z,101007.59
2023-02-03T10:56:13.811Z,101011.06
2023-02-03T10:59:00.017Z,101005.69
2023-02-03T11:01:40.920Z,100995.50
2023-02-03T11:04:37.561Z,100992.88
2023-02-03T11:07:29.798Z,100973.03
2023-02-03T11:14:22.283Z,100947.06
2023-02-03T11:16:49.591Z,100940.44
2023-02-03T11:19:23.625Z,100952.38
2023-02-03T11:21:58.022Z,100953.97
2023-02-03T11:24:41.186Z,100953.44
2023-02-03T11:27:20.956Z,100949.81
2023-02-03T11:29:55.244Z,100929.69
2023-02-03T11:32:47.200Z,100922.38
2023-02-03T11:35:32.940Z,100912.00
2023-02-03T11:38:57.311Z,100912.38
2023-02-03T11:41:37.588Z,100906.97
2023-02-03T11:44:35.967Z,100911.97
2023-02-03T11:47:11.871Z,100898.81
2023-02-03T11:50:15.251Z,100890.25
2023-02-03T11:54:24.862Z,100895.16
2023-02-03T11:57:58.314Z,100885.13
2023-02-03T12:00:35.718Z,100877.25
2023-02-03T12:04:07.685Z,100870.47
2023-02-03T12:07:05.817Z,100860.66
2023-02-03T12:10:14.017Z,100847.97
2023-02-03T12:13:10.199Z,100835.38
2023-02-03T12:16:22.535Z,100835.97
2023-02-03T12:19:30.625Z,100828.66
2023-02-03T12:22:48.458Z,100810.41
2023-02-03T12:26:08.026Z,100807.97
2023-02-03T12:29:56.458Z,100802.22
2023-02-03T12:32:46.893Z,100789.28
2023-02-03T12:35:32.064Z,100788.03
2023-02-03T12:38:14.746Z,100776.94
2023-02-03T12:41:02.651Z,100780.81
2023-02-03T12:44:04.663Z,100768.03
2023-02-03T12:49:14.517Z,100760.59
2023-02-03T12:51:10.507Z,100752.59
2023-02-03T12:54:07.915Z,100742.78
2023-02-03T12:56:47.045Z,100748.44
2023-02-03T13:00:06.453Z,100740.97
2023-02-03T13:03:31.687Z,100738.03
2023-02-03T13:06:44.030Z,100737.13
2023-02-03T13:09:59.604Z,100738.34
2023-02-03T13:12:49.288Z,100729.63
2023-02-03T13:15:44.541Z,100737.59
2023-02-03T13:18:45.520Z,100725.00
2023-02-03T13:21:19.436Z,100713.66
2023-02-03T13:23:51.742Z,100714.34
2023-02-03T13:26:33.453Z,100712.72
2023-02-03T13:30:06.740Z,100704.00
2023-02-03T13:33:32.114Z,100707.34
2023-02-03T13:36:40.638Z,100702.78
2023-02-03T13:39:57.366Z,100691.47
2023-02-03T13:42:48.087Z,100679.09
2023-02-03T13:45:44.346Z,100676.16
2023-02-03T13:48:31.418Z,100686.50
2023-02-03T13:51:20.252Z,100683.28
2023-02-03T13:53:50.082Z,100688.00
2023-02-03T13:56:34.486Z,100677.50
2023-02-03T13:59:45.101Z,100671.72
2023-02-03T14:02:22.036Z,100661.22
2023-02-03T14:04:55.685Z,100651.50
2023-02-03T14:07:42.216Z,100655.34
2023-02-03T14:10:29.777Z,100660.75
2023-02-03T14:13:03.756Z,100647.81
2023-02-03T14:15:45.000Z,100658.94
2023-02-03T14:18:59.117Z,100660.59
2023-02-03T14:21:48.687Z,100652.78
2023-02-03T14:24:56.759Z,100642.25
2023-02-03T14:27:33.738Z,100645.41
2023-02-03T14:30:26.091Z,100645.75
2023-02-03T14:33:02.740Z,100628.31
2023-02-03T14:35:42.435Z,100630.66
2023-02-03T14:38:26.792Z,100627.34
2023-02-03T14:41:06.001Z,100629.84
2023-02-03T14:43:50.972Z,100627.34
2023-02-03T14:46:38.152Z,100631.56
2023-02-03T14:49:46.934Z,100626.50
2023-02-03T14:53:24.324Z,100627.06
2023-02-03T14:57:02.715Z,100618.94
2023-02-03T15:00:05.593Z,100626.72
2023-02-03T15:03:06.854Z,100620.53
2023-02-03T15:05:43.740Z,100610.94
2023-02-03T15:08:43.856Z,100614.50
2023-02-03T15:11:33.548Z,100624.25
2023-02-03T15:14:23.844Z,100611.84
2023-02-03T15:17:05.341Z,100612.19
2023-02-03T15:19:42.122Z,100600.81
2023-02-03T15:22:26.419Z,100610.97
2023-02-03T15:25:04.251Z,100598.94
2023-02-03T15:27:33.196Z,100591.59
2023-02-03T15:30:31.984Z,100582.25
2023-02-03T15:33:21.408Z,100577.91
2023-02-03T15:36:04.646Z,100581.59
2023-02-03T15:38:57.439Z,100596.09
2023-02-03T15:41:39.774Z,100597.13
2023-02-03T15:44:56.211Z,100591.88
2023-02-03T15:48:07.709Z,100590.97
2023-02-03T15:50:43.281Z,100593.91
2023-02-03T15:53:46.911Z,100593.25
2023-02-03T15:56:37.914Z,100599.22
2023-02-03T15:59:45.290Z,100583.94
2023-02-03T16:02:40.484Z,100584.94
2023-02-03T16:05:33.688Z,100575.91
2023-02-03T16:08:44.194Z,100578.59
2023-02-03T16:11:34.556Z,100584.50
2023-02-03T16:14:10.482Z,100582.75
2023-02-03T16:17:04.821Z,100578.81
2023-02-03T16:19:43.674Z,100583.00
2023-02-03T16:22:36.233Z,100570.78
2023-02-03T16:25:24.375Z,100572.25
2023-02-03T16:28:31.821Z,100572.66
2023-02-03T16:31:35.646Z,100574.13
2023-02-03T16:34:38.116Z,100587.91
2023-02-03T16:37:43.313Z,100604.81
2023-02-03T16:40:37.527Z,100604.72
2023-02-03T16:43:30.858Z,100597.34
2023-02-03T16:46:22.326Z,100597.16
2023-02-03T16:49:10.462Z,100598.16
2023-02-03T16:51:42.342Z,100591.22
2023-02-03T16:54:18.279Z,100594.09
2023-02-03T16:56:47.992Z,100600.00
2023-02-03T16:59:30.540Z,100588.16
2023-02-03T17:02:15.226Z,100590.00
2023-02-03T17:04:45.323Z,100575.69
2023-02-03T17:07:15.904Z,100581.66
2023-02-03T17:09:54.600Z,100582.22
2023-02-03T17:12:39.520Z,100597.13
2023-02-03T17:15:12.210Z,100594.22
2023-02-03T17:17:41.960Z,100593.13
2023-02-03T17:20:59.007Z,100596.59
2023-02-03T17:23:00.222Z,100594.91
2023-02-03T17:25:30.248Z,100583.97
2023-02-03T17:28:00.233Z,100584.81
2023-02-03T17:30:39.385Z,100584.34
2023-02-03T17:33:13.301Z,100585.09
2023-02-03T17:35:45.596Z,100590.97
2023-02-03T17:38:16.962Z,100590.06
2023-02-03T17:54:39.590Z,100613.84
2023-02-03T17:57:07.329Z,100614.91
2023-02-03T17:59:39.787Z,100619.97
2023-02-03T18:02:11.367Z,100612.41
2023-02-03T18:04:56.639Z,100621.38
2023-02-03T18:10:21.161Z,100613.03
2023-02-03T18:13:21.243Z,100607.53
2023-02-03T18:15:57.632Z,100620.59
2023-02-03T18:18:36.657Z,100612.34
2023-02-03T18:21:25.862Z,100614.97
2023-02-03T18:24:10.293Z,100607.66
2023-02-03T18:26:54.442Z,100607.41
2023-02-03T18:29:28.752Z,100601.03
2023-02-03T18:32:01.018Z,100589.44
2023-02-03T18:34:51.700Z,100585.78
2023-02-03T18:37:23.432Z,100580.81
2023-02-03T18:40:10.905Z,100579.00
2023-02-03T18:42:44.337Z,100583.38
2023-02-03T18:45:16.366Z,100572.72
2023-02-03T18:47:43.966Z,100574.03
2023-02-03T18:50:11.560Z,100564.78
2023-02-03T18:52:42.556Z,100575.53
2023-02-03T18:55:16.042Z,100565.84
2023-02-03T18:57:54.351Z,100565.66
2023-02-03T19:00:49.735Z,100571.41
2023-02-03T19:03:27.803Z,100573.88
2023-02-03T19:06:14.265Z,100580.84
2023-02-03T19:09:02.887Z,100591.78
2023-02-03T19:11:35.948Z,100580.22
2023-02-03T19:14:17.761Z,100587.81
2023-02-03T19:16:45.533Z,100596.53
2023-02-03T19:19:36.070Z,100605.28
2023-02-03T19:22:03.569Z,100602.59
2023-02-03T19:24:30.980Z,100605.81
2023-02-03T19:27:07.069Z,100596.75
2023-02-03T19:29:51.868Z,100586.63
2023-02-03T19:32:23.840Z,100566.34
2023-02-03T19:34:51.155Z,100574.00
2023-02-03T19:37:21.206Z,100562.44
2023-02-03T19:39:57.905Z,100558.16
2023-02-03T19:42:35.924Z,100557.25
2023-02-03T19:45:05.255Z,100557.00
2023-02-03T19:47:35.499Z,100561.63
2023-02-03T19:50:06.636Z,100546.56
2023-02-03T19:52:58.617Z,100541.75
2023-02-03T19:56:09.823Z,100536.63
2023-02-03T19:58:38.624Z,100539.63
2023-02-03T20:01:38.346Z,100540.69
2023-02-03T20:04:13.808Z,100543.47
2023-02-03T20:06:52.437Z,100534.06
2023-02-03T20:09:22.688Z,100544.66
2023-02-03T20:11:54.101Z,100537.84
2023-02-03T20:14:32.681Z,100539.00
2023-02-03T20:17:03.393Z,100545.69
2023-02-03T20:19:43.909Z,100533.22
2023-02-03T20:22:11.450Z,100526.22
2023-02-03T20:24:47.027Z,100535.84
2023-02-03T20:27:14.334Z,100525.22
2023-02-03T20:29:41.622Z,100530.84
2023-02-03T20:32:13.897Z,100518.41
2023-02-03T20:34:46.907Z,100523.03
2023-02-03T20:37:14.158Z,100511.47
2023-02-03T20:39:41.661Z,100494.09
2023-02-03T20:42:17.841Z,100497.72
2023-02-03T20:44:45.849Z,100488.78
2023-02-03T20:47:22.175Z,100505.13
2023-02-03T20:49:52.535Z,100490.78
2023-02-03T20:52:26.086Z,100481.03
2023-02-03T20:54:56.144Z,100472.50
2023-02-03T20:57:26.163Z,100471.81
2023-02-03T21:01:32.046Z,100475.41
2023-02-03T21:03:37.225Z,100477.91
2023-02-03T21:06:20.010Z,100483.13
2023-02-03T21:08:48.584Z,100483.53
2023-02-03T21:11:23.432Z,100473.41
2023-02-03T21:13:50.870Z,100483.06
2023-02-03T21:16:27.581Z,100483.97
2023-02-03T21:19:02.619Z,100485.25
2023-02-03T21:21:42.293Z,100477.13
2023-02-03T21:24:35.556Z,100483.34
2023-02-03T21:27:18.853Z,100482.03
2023-02-03T21:29:51.923Z,100482.84
2023-02-03T21:32:19.374Z,100484.81
2023-02-03T21:34:47.906Z,100481.69
2023-02-03T21:37:21.232Z,100474.97
2023-02-03T21:39:52.672Z,100476.16
2023-02-03T21:42:42.099Z,100480.56
2023-02-03T21:45:17.871Z,100486.59
2023-02-03T21:47:48.214Z,100472.25
2023-02-03T21:50:36.791Z,100468.84
2023-02-03T21:53:12.791Z,100465.13
2023-02-03T21:55:42.677Z,100468.94
2023-02-03T21:58:12.183Z,100474.38
2023-02-03T22:00:48.022Z,100480.44
2023-02-03T22:03:37.572Z,100479.97
2023-02-03T22:06:23.871Z,100480.31
2023-02-03T22:08:59.092Z,100484.59
2023-02-03T22:11:29.865Z,100488.38
2023-02-03T22:13:57.835Z,100474.56
2023-02-03T22:16:25.925Z,100478.59
2023-02-03T22:18:53.424Z,100474.38
2023-02-03T22:21:23.206Z,100477.94
2023-02-03T22:23:54.004Z,100470.72
2023-02-03T22:26:22.083Z,100467.16
2023-02-03T22:28:49.938Z,100472.59
2023-02-03T22:31:19.865Z,100459.03
2023-02-03T22:33:47.710Z,100468.72
2023-02-03T22:36:17.231Z,100467.69
2023-02-03T22:38:46.877Z,100471.34
2023-02-03T22:41:14.210Z,100468.75
2023-02-03T22:43:43.746Z,100466.47
2023-02-03T22:46:11.723Z,100471.13
2023-02-03T22:48:39.101Z,100470.09
2023-02-03T22:51:06.541Z,100471.28
2023-02-03T22:53:34.839Z,100459.88
2023-02-03T22:56:02.136Z,100473.56
2023-02-03T22:58:29.412Z,100470.59
2023-02-03T23:00:56.795Z,100473.75
2023-02-03T23:03:24.214Z,100474.72
2023-02-03T23:05:53.891Z,100471.66
2023-02-03T23:08:22.395Z,100468.84
2023-02-03T23:10:49.752Z,100462.66
2023-02-03T23:13:17.190Z,100454.75
2023-02-03T23:15:44.468Z,100455.31
2023-02-03T23:18:11.702Z,100454.53
2023-02-03T23:20:39.189Z,100454.34
2023-02-03T23:23:06.935Z,100466.25
2023-02-03T23:25:34.229Z,100449.03
2023-02-03T23:28:01.548Z,100452.72
2023-02-03T23:30:32.235Z,100458.13
2023-02-03T23:32:59.660Z,100454.75
2023-02-03T23:35:45.516Z,100442.19
2023-02-03T23:38:17.467Z,100444.53
2023-02-03T23:40:45.637Z,100437.28
2023-02-03T23:43:13.184Z,100440.69
2023-02-03T23:45:40.983Z,100432.66
2023-02-03T23:48:09.352Z,100423.34
2023-02-03T23:50:37.002Z,100426.63
2023-02-03T23:53:04.983Z,100418.13
2023-02-03T23:55:32.277Z,100415.84
2023-02-03T23:58:01.811Z,100420.22
